sensor_id;sensor_type;location;lat;lon;timestamp;P1;durP1;ratioP1;P2;durP2;ratioP2
20369;SDS011;10344;47.592;9.600;2022-10-22T00:03:22;6.60;;;4.30;;
20369;SDS011;10344;47.592;9.600;2022-10-22T00:05:48;2.90;;;1.70;;
20369;SDS011;10344;47.592;9.600;2022-10-22T00:08:13;1.87;;;1.10;;
20369;SDS011;10344;47.592;9.600;2022-10-22T00:10:47;1.80;;;1.30;;
20369;SDS011;10344;47.592;9.600;2022-10-22T00:13:35;1.38;;;1.25;;
20369;SDS011;10344;47.592;9.600;2022-10-22T00:17:00;1.48;;;1.38;;
20369;SDS011;10344;47.592;9.600;2022-10-22T00:20:44;1.10;;;1.00;;
20369;SDS011;10344;47.592;9.600;2022-10-22T00:23:44;2.10;;;1.10;;
20369;SDS011;10344;47.592;9.600;2022-10-22T00:26:59;1.55;;;1.00;;
20369;SDS011;10344;47.592;9.600;2022-10-22T00:30:43;1.15;;;1.05;;
20369;SDS011;10344;47.592;9.600;2022-10-22T00:37:06;1.20;;;0.90;;
20369;SDS011;10344;47.592;9.600;2022-10-22T00:44:07;1.03;;;0.90;;
20369;SDS011;10344;47.592;9.600;2022-10-22T01:24:17;1.65;;;0.98;;
20369;SDS011;10344;47.592;9.600;2022-10-22T01:27:08;0.98;;;0.95;;
20369;SDS011;10344;47.592;9.600;2022-10-22T01:30:14;1.30;;;0.90;;
20369;SDS011;10344;47.592;9.600;2022-10-22T01:33:00;1.20;;;1.10;;
20369;SDS011;10344;47.592;9.600;2022-10-22T01:36:07;1.27;;;0.93;;
20369;SDS011;10344;47.592;9.600;2022-10-22T01:38:38;1.40;;;0.90;;
20369;SDS011;10344;47.592;9.600;2022-10-22T01:41:10;0.60;;;0.53;;
20369;SDS011;10344;47.592;9.600;2022-10-22T01:43:36;1.00;;;0.57;;
20369;SDS011;10344;47.592;9.600;2022-10-22T01:46:05;1.38;;;0.60;;
20369;SDS011;10344;47.592;9.600;2022-10-22T02:22:45;1.88;;;0.57;;
20369;SDS011;10344;47.592;9.600;2022-10-22T02:25:13;0.55;;;0.50;;
20369;SDS011;10344;47.592;9.600;2022-10-22T02:27:50;1.37;;;0.70;;
20369;SDS011;10344;47.592;9.600;2022-10-22T02:30:38;1.83;;;1.03;;
20369;SDS011;10344;47.592;9.600;2022-10-22T02:33:12;2.75;;;1.20;;
20369;SDS011;10344;47.592;9.600;2022-10-22T02:35:45;1.20;;;1.00;;
20369;SDS011;10344;47.592;9.600;2022-10-22T02:38:12;1.53;;;1.00;;
20369;SDS011;10344;47.592;9.600;2022-10-22T02:40:41;1.00;;;0.90;;
20369;SDS011;10344;47.592;9.600;2022-10-22T02:43:06;0.80;;;0.80;;
20369;SDS011;10344;47.592;9.600;2022-10-22T02:45:33;1.00;;;0.90;;
20369;SDS011;10344;47.592;9.600;2022-10-22T02:48:08;0.65;;;0.65;;
20369;SDS011;10344;47.592;9.600;2022-10-22T02:50:39;0.90;;;0.80;;
20369;SDS011;10344;47.592;9.600;2022-10-22T05:37:08;1.45;;;0.73;;
20369;SDS011;10344;47.592;9.600;2022-10-22T08:56:05;2.00;;;0.70;;
20369;SDS011;10344;47.592;9.600;2022-10-22T08:58:35;0.90;;;0.65;;
20369;SDS011;10344;47.592;9.600;2022-10-22T09:01:14;0.95;;;0.90;;
20369;SDS011;10344;47.592;9.600;2022-10-22T09:06:32;1.67;;;0.63;;
20369;SDS011;10344;47.592;9.600;2022-10-22T09:09:04;1.20;;;0.70;;
20369;SDS011;10344;47.592;9.600;2022-10-22T09:11:48;1.05;;;0.50;;
20369;SDS011;10344;47.592;9.600;2022-10-22T09:14:19;1.73;;;0.67;;
20369;SDS011;10344;47.592;9.600;2022-10-22T09:19:46;0.95;;;0.50;;
20369;SDS011;10344;47.592;9.600;2022-10-22T09:22:41;0.73;;;0.30;;
20369;SDS011;10344;47.592;9.600;2022-10-22T09:25:29;1.00;;;0.40;;
20369;SDS011;10344;47.592;9.600;2022-10-22T09:28:00;0.90;;;0.40;;
20369;SDS011;10344;47.592;9.600;2022-10-22T09:30:30;0.68;;;0.47;;
20369;SDS011;10344;47.592;9.600;2022-10-22T09:32:59;0.93;;;0.35;;
20369;SDS011;10344;47.592;9.600;2022-10-22T09:35:50;0.65;;;0.43;;
20369;SDS011;10344;47.592;9.600;2022-10-22T09:38:18;0.68;;;0.35;;
20369;SDS011;10344;47.592;9.600;2022-10-22T09:40:50;0.90;;;0.22;;
20369;SDS011;10344;47.592;9.600;2022-10-22T09:43:18;0.45;;;0.30;;
20369;SDS011;10344;47.592;9.600;2022-10-22T09:45:44;1.10;;;0.30;;
20369;SDS011;10344;47.592;9.600;2022-10-22T09:53:47;0.80;;;0.40;;
20369;SDS011;10344;47.592;9.600;2022-10-22T09:56:25;0.70;;;0.40;;
20369;SDS011;10344;47.592;9.600;2022-10-22T09:58:55;0.90;;;0.60;;
20369;SDS011;10344;47.592;9.600;2022-10-22T10:01:28;0.60;;;0.50;;
20369;SDS011;10344;47.592;9.600;2022-10-22T10:04:04;1.90;;;0.60;;
20369;SDS011;10344;47.592;9.600;2022-10-22T10:06:38;0.98;;;0.60;;
20369;SDS011;10344;47.592;9.600;2022-10-22T10:11:47;0.90;;;0.60;;
20369;SDS011;10344;47.592;9.600;2022-10-22T10:20:10;0.40;;;0.40;;
20369;SDS011;10344;47.592;9.600;2022-10-22T10:25:29;7.85;;;1.70;;
20369;SDS011;10344;47.592;9.600;2022-10-22T10:28:01;1.30;;;0.60;;
20369;SDS011;10344;47.592;9.600;2022-10-22T10:30:39;0.52;;;0.38;;
20369;SDS011;10344;47.592;9.600;2022-10-22T10:33:37;0.68;;;0.40;;
20369;SDS011;10344;47.592;9.600;2022-10-22T10:36:19;0.30;;;0.30;;
20369;SDS011;10344;47.592;9.600;2022-10-22T10:38:59;0.45;;;0.20;;
20369;SDS011;10344;47.592;9.600;2022-10-22T10:49:30;0.43;;;0.10;;
20369;SDS011;10344;47.592;9.600;2022-10-22T10:55:08;0.20;;;0.17;;
20369;SDS011;10344;47.592;9.600;2022-10-22T10:57:49;0.88;;;0.28;;
20369;SDS011;10344;47.592;9.600;2022-10-22T11:00:37;0.52;;;0.20;;
20369;SDS011;10344;47.592;9.600;2022-10-22T11:06:00;1.45;;;0.20;;
20369;SDS011;10344;47.592;9.600;2022-10-22T11:08:32;3.50;;;0.60;;
20369;SDS011;10344;47.592;9.600;2022-10-22T11:13:42;2.17;;;0.30;;
20369;SDS011;10344;47.592;9.600;2022-10-22T11:16:11;0.52;;;0.20;;
20369;SDS011;10344;47.592;9.600;2022-10-22T11:19:10;0.90;;;0.10;;
20369;SDS011;10344;47.592;9.600;2022-10-22T11:26:48;1.38;;;0.35;;
20369;SDS011;10344;47.592;9.600;2022-10-22T11:29:26;1.80;;;0.38;;
20369;SDS011;10344;47.592;9.600;2022-10-22T11:31:57;4.43;;;0.77;;
20369;SDS011;10344;47.592;9.600;2022-10-22T11:34:36;3.10;;;0.50;;
20369;SDS011;10344;47.592;9.600;2022-10-22T11:37:08;0.70;;;0.20;;
20369;SDS011;10344;47.592;9.600;2022-10-22T11:42:18;4.00;;;0.45;;
20369;SDS011;10344;47.592;9.600;2022-10-22T11:45:06;1.08;;;0.30;;
20369;SDS011;10344;47.592;9.600;2022-10-22T11:55:50;0.30;;;0.30;;
20369;SDS011;10344;47.592;9.600;2022-10-22T12:00:52;1.50;;;0.55;;
20369;SDS011;10344;47.592;9.600;2022-10-22T12:11:15;3.22;;;0.52;;
20369;SDS011;10344;47.592;9.600;2022-10-22T12:14:12;0.70;;;0.30;;
20369;SDS011;10344;47.592;9.600;2022-10-22T12:19:45;1.70;;;1.60;;
20369;SDS011;10344;47.592;9.600;2022-10-22T12:22:29;0.50;;;0.50;;
20369;SDS011;10344;47.592;9.600;2022-10-22T12:24:59;1.15;;;0.82;;
20369;SDS011;10344;47.592;9.600;2022-10-22T12:30:21;1.48;;;1.02;;
20369;SDS011;10344;47.592;9.600;2022-10-22T12:32:56;1.98;;;1.13;;
20369;SDS011;10344;47.592;9.600;2022-10-22T12:35:26;4.38;;;0.95;;
20369;SDS011;10344;47.592;9.600;2022-10-22T12:37:57;0.50;;;0.28;;
20369;SDS011;10344;47.592;9.600;2022-10-22T12:40:29;1.67;;;1.50;;
20369;SDS011;10344;47.592;9.600;2022-10-22T12:43:44;4.03;;;2.87;;
20369;SDS011;10344;47.592;9.600;2022-10-22T12:45:49;1.93;;;1.57;;
20369;SDS011;10344;47.592;9.600;2022-10-22T12:48:29;2.42;;;1.80;;
20369;SDS011;10344;47.592;9.600;2022-10-22T12:50:59;2.17;;;1.63;;
20369;SDS011;10344;47.592;9.600;2022-10-22T12:53:27;1.45;;;1.30;;
20369;SDS011;10344;47.592;9.600;2022-10-22T12:55:55;1.50;;;0.50;;
20369;SDS011;10344;47.592;9.600;2022-10-22T12:58:27;1.35;;;1.25;;
20369;SDS011;10344;47.592;9.600;2022-10-22T13:01:04;0.95;;;0.90;;
20369;SDS011;10344;47.592;9.600;2022-10-22T13:03:35;1.38;;;1.27;;
20369;SDS011;10344;47.592;9.600;2022-10-22T13:11:32;2.65;;;2.20;;
20369;SDS011;10344;47.592;9.600;2022-10-22T13:14:04;3.08;;;2.80;;
20369;SDS011;10344;47.592;9.600;2022-10-22T13:16:39;2.50;;;2.00;;
20369;SDS011;10344;47.592;9.600;2022-10-22T13:19:31;0.80;;;0.70;;
20369;SDS011;10344;47.592;9.600;2022-10-22T13:22:24;1.00;;;0.70;;
20369;SDS011;10344;47.592;9.600;2022-10-22T13:24:55;1.65;;;1.42;;
20369;SDS011;10344;47.592;9.600;2022-10-22T13:27:24;3.33;;;1.43;;
20369;SDS011;10344;47.592;9.600;2022-10-22T13:29:53;1.35;;;1.17;;
20369;SDS011;10344;47.592;9.600;2022-10-22T13:32:27;0.73;;;0.73;;
20369;SDS011;10344;47.592;9.600;2022-10-22T13:34:56;1.23;;;0.90;;
20369;SDS011;10344;47.592;9.600;2022-10-22T13:37:23;2.67;;;2.45;;
20369;SDS011;10344;47.592;9.600;2022-10-22T13:39:49;2.20;;;1.80;;
20369;SDS011;10344;47.592;9.600;2022-10-22T13:42:14;1.73;;;1.20;;
20369;SDS011;10344;47.592;9.600;2022-10-22T13:44:40;1.83;;;1.20;;
20369;SDS011;10344;47.592;9.600;2022-10-22T13:47:20;1.20;;;0.55;;
20369;SDS011;10344;47.592;9.600;2022-10-22T13:49:57;0.88;;;0.35;;
20369;SDS011;10344;47.592;9.600;2022-10-22T13:52:35;0.40;;;0.40;;
20369;SDS011;10344;47.592;9.600;2022-10-22T13:55:20;1.10;;;0.40;;
20369;SDS011;10344;47.592;9.600;2022-10-22T13:57:57;0.50;;;0.38;;
20369;SDS011;10344;47.592;9.600;2022-10-22T14:00:24;1.00;;;0.40;;
20369;SDS011;10344;47.592;9.600;2022-10-22T14:02:51;0.90;;;0.40;;
20369;SDS011;10344;47.592;9.600;2022-10-22T14:05:19;0.68;;;0.40;;
20369;SDS011;10344;47.592;9.600;2022-10-22T14:07:45;1.40;;;0.50;;
20369;SDS011;10344;47.592;9.600;2022-10-22T14:10:16;1.13;;;0.50;;
20369;SDS011;10344;47.592;9.600;2022-10-22T14:12:43;0.95;;;0.40;;
20369;SDS011;10344;47.592;9.600;2022-10-22T14:15:15;0.77;;;0.40;;
20369;SDS011;10344;47.592;9.600;2022-10-22T14:17:48;2.60;;;0.50;;
20369;SDS011;10344;47.592;9.600;2022-10-22T14:20:21;0.47;;;0.30;;
20369;SDS011;10344;47.592;9.600;2022-10-22T14:23:14;1.70;;;0.45;;
20369;SDS011;10344;47.592;9.600;2022-10-22T14:25:43;1.00;;;0.30;;
20369;SDS011;10344;47.592;9.600;2022-10-22T14:28:09;1.00;;;0.50;;
20369;SDS011;10344;47.592;9.600;2022-10-22T14:30:35;1.63;;;0.50;;
20369;SDS011;10344;47.592;9.600;2022-10-22T14:33:05;1.38;;;0.50;;
20369;SDS011;10344;47.592;9.600;2022-10-22T14:35:39;1.63;;;0.60;;
20369;SDS011;10344;47.592;9.600;2022-10-22T14:38:07;0.90;;;0.70;;
20369;SDS011;10344;47.592;9.600;2022-10-22T14:40:33;0.98;;;0.65;;
20369;SDS011;10344;47.592;9.600;2022-10-22T14:42:59;2.43;;;0.80;;
20369;SDS011;10344;47.592;9.600;2022-10-22T14:45:25;3.30;;;0.60;;
20369;SDS011;10344;47.592;9.600;2022-10-22T14:47:53;0.40;;;0.40;;
20369;SDS011;10344;47.592;9.600;2022-10-22T14:50:21;0.43;;;0.40;;
20369;SDS011;10344;47.592;9.600;2022-10-22T14:52:48;1.00;;;0.80;;
20369;SDS011;10344;47.592;9.600;2022-10-22T14:55:15;2.63;;;1.00;;
20369;SDS011;10344;47.592;9.600;2022-10-22T14:57:44;2.75;;;0.85;;
20369;SDS011;10344;47.592;9.600;2022-10-22T15:00:12;0.52;;;0.50;;
20369;SDS011;10344;47.592;9.600;2022-10-22T15:02:40;2.88;;;0.40;;
20369;SDS011;10344;47.592;9.600;2022-10-22T15:05:06;1.67;;;0.40;;
20369;SDS011;10344;47.592;9.600;2022-10-22T15:07:32;0.65;;;0.40;;
20369;SDS011;10344;47.592;9.600;2022-10-22T15:10:05;1.77;;;0.40;;
20369;SDS011;10344;47.592;9.600;2022-10-22T15:12:31;0.80;;;0.32;;
20369;SDS011;10344;47.592;9.600;2022-10-22T15:14:57;5.53;;;3.57;;
20369;SDS011;10344;47.592;9.600;2022-10-22T15:17:23;5.35;;;4.10;;
20369;SDS011;10344;47.592;9.600;2022-10-22T15:19:48;4.28;;;2.78;;
20369;SDS011;10344;47.592;9.600;2022-10-22T15:22:16;3.50;;;2.50;;
20369;SDS011;10344;47.592;9.600;2022-10-22T15:24:43;2.87;;;1.50;;
20369;SDS011;10344;47.592;9.600;2022-10-22T15:27:09;1.37;;;0.97;;
20369;SDS011;10344;47.592;9.600;2022-10-22T15:29:38;3.38;;;1.15;;
20369;SDS011;10344;47.592;9.600;2022-10-22T15:32:08;2.00;;;0.70;;
20369;SDS011;10344;47.592;9.600;2022-10-22T15:34:34;3.17;;;0.70;;
20369;SDS011;10344;47.592;9.600;2022-10-22T15:37:02;1.08;;;0.70;;
20369;SDS011;10344;47.592;9.600;2022-10-22T15:39:31;1.95;;;1.00;;
20369;SDS011;10344;47.592;9.600;2022-10-22T15:42:00;2.00;;;1.20;;
20369;SDS011;10344;47.592;9.600;2022-10-22T15:44:30;2.53;;;1.58;;
20369;SDS011;10344;47.592;9.600;2022-10-22T15:46:57;1.30;;;1.00;;
20369;SDS011;10344;47.592;9.600;2022-10-22T15:49:23;1.20;;;0.73;;
20369;SDS011;10344;47.592;9.600;2022-10-22T15:51:51;0.80;;;0.70;;
20369;SDS011;10344;47.592;9.600;2022-10-22T15:54:17;1.37;;;0.87;;
20369;SDS011;10344;47.592;9.600;2022-10-22T15:56:44;1.67;;;0.60;;
20369;SDS011;10344;47.592;9.600;2022-10-22T15:59:11;1.60;;;0.80;;
20369;SDS011;10344;47.592;9.600;2022-10-22T16:01:38;1.30;;;0.90;;
20369;SDS011;10344;47.592;9.600;2022-10-22T16:04:04;1.10;;;0.73;;
20369;SDS011;10344;47.592;9.600;2022-10-22T16:06:42;0.68;;;0.50;;
20369;SDS011;10344;47.592;9.600;2022-10-22T16:09:11;0.55;;;0.52;;
20369;SDS011;10344;47.592;9.600;2022-10-22T16:11:44;1.05;;;0.60;;
20369;SDS011;10344;47.592;9.600;2022-10-22T16:14:13;0.52;;;0.50;;
20369;SDS011;10344;47.592;9.600;2022-10-22T16:16:43;2.03;;;0.70;;
20369;SDS011;10344;47.592;9.600;2022-10-22T16:19:10;1.02;;;0.57;;
20369;SDS011;10344;47.592;9.600;2022-10-22T16:21:39;0.57;;;0.50;;
20369;SDS011;10344;47.592;9.600;2022-10-22T16:24:05;2.60;;;0.65;;
20369;SDS011;10344;47.592;9.600;2022-10-22T16:26:32;2.38;;;0.80;;
20369;SDS011;10344;47.592;9.600;2022-10-22T16:28:58;0.88;;;0.75;;
20369;SDS011;10344;47.592;9.600;2022-10-22T16:31:26;2.43;;;0.80;;
20369;SDS011;10344;47.592;9.600;2022-10-22T16:33:52;1.30;;;0.70;;
20369;SDS011;10344;47.592;9.600;2022-10-22T16:36:19;1.60;;;1.00;;
20369;SDS011;10344;47.592;9.600;2022-10-22T16:38:45;3.10;;;1.13;;
20369;SDS011;10344;47.592;9.600;2022-10-22T16:41:16;2.00;;;1.30;;
20369;SDS011;10344;47.592;9.600;2022-10-22T16:43:43;5.60;;;1.88;;
20369;SDS011;10344;47.592;9.600;2022-10-22T16:46:15;2.67;;;2.10;;
20369;SDS011;10344;47.592;9.600;2022-10-22T16:48:45;3.88;;;2.85;;
20369;SDS011;10344;47.592;9.600;2022-10-22T16:51:12;7.40;;;3.83;;
20369;SDS011;10344;47.592;9.600;2022-10-22T16:53:38;6.78;;;4.10;;
20369;SDS011;10344;47.592;9.600;2022-10-22T16:56:11;8.55;;;4.13;;
20369;SDS011;10344;47.592;9.600;2022-10-22T16:58:48;6.25;;;3.40;;
20369;SDS011;10344;47.592;9.600;2022-10-22T17:01:22;7.80;;;4.10;;
20369;SDS011;10344;47.592;9.600;2022-10-22T17:05:01;11.93;;;5.15;;
20369;SDS011;10344;47.592;9.600;2022-10-22T17:10:30;10.85;;;5.40;;
20369;SDS011;10344;47.592;9.600;2022-10-22T17:12:59;9.48;;;5.50;;
20369;SDS011;10344;47.592;9.600;2022-10-22T17:32:37;4.33;;;2.27;;
20369;SDS011;10344;47.592;9.600;2022-10-22T17:46:25;4.73;;;1.90;;
20369;SDS011;10344;47.592;9.600;2022-10-22T17:56:48;2.50;;;1.38;;
20369;SDS011;10344;47.592;9.600;2022-10-22T18:00:26;5.68;;;2.20;;
20369;SDS011;10344;47.592;9.600;2022-10-22T18:03:53;10.07;;;5.55;;
20369;SDS011;10344;47.592;9.600;2022-10-22T18:06:22;8.02;;;5.28;;
20369;SDS011;10344;47.592;9.600;2022-10-22T18:08:48;7.07;;;3.75;;
20369;SDS011;10344;47.592;9.600;2022-10-22T18:11:15;5.47;;;3.93;;
20369;SDS011;10344;47.592;9.600;2022-10-22T18:13:43;2.70;;;2.10;;
20369;SDS011;10344;47.592;9.600;2022-10-22T18:16:12;2.60;;;1.70;;
20369;SDS011;10344;47.592;9.600;2022-10-22T18:18:40;3.20;;;1.73;;
20369;SDS011;10344;47.592;9.600;2022-10-22T18:21:10;2.95;;;1.73;;
20369;SDS011;10344;47.592;9.600;2022-10-22T18:23:36;3.03;;;1.73;;
20369;SDS011;10344;47.592;9.600;2022-10-22T18:26:03;1.87;;;1.53;;
20369;SDS011;10344;47.592;9.600;2022-10-22T18:28:29;2.78;;;1.60;;
20369;SDS011;10344;47.592;9.600;2022-10-22T18:30:54;3.80;;;1.88;;
20369;SDS011;10344;47.592;9.600;2022-10-22T18:33:21;1.90;;;1.40;;
20369;SDS011;10344;47.592;9.600;2022-10-22T18:35:49;1.87;;;1.47;;
20369;SDS011;10344;47.592;9.600;2022-10-22T18:38:19;3.17;;;1.58;;
20369;SDS011;10344;47.592;9.600;2022-10-22T18:40:48;2.65;;;1.40;;
20369;SDS011;10344;47.592;9.600;2022-10-22T18:43:15;1.73;;;1.40;;
20369;SDS011;10344;47.592;9.600;2022-10-22T18:45:45;1.95;;;1.20;;
20369;SDS011;10344;47.592;9.600;2022-10-22T18:48:12;1.33;;;1.10;;
20369;SDS011;10344;47.592;9.600;2022-10-22T18:50:39;4.35;;;1.70;;
20369;SDS011;10344;47.592;9.600;2022-10-22T18:53:06;2.58;;;1.42;;
20369;SDS011;10344;47.592;9.600;2022-10-22T18:55:33;2.53;;;1.38;;
20369;SDS011;10344;47.592;9.600;2022-10-22T18:58:01;1.92;;;1.13;;
20369;SDS011;10344;47.592;9.600;2022-10-22T19:00:28;3.60;;;1.10;;
20369;SDS011;10344;47.592;9.600;2022-10-22T19:02:54;1.58;;;1.40;;
20369;SDS011;10344;47.592;9.600;2022-10-22T19:05:21;3.00;;;1.33;;
20369;SDS011;10344;47.592;9.600;2022-10-22T19:07:50;1.87;;;1.20;;
20369;SDS011;10344;47.592;9.600;2022-10-22T19:10:20;3.90;;;1.20;;
20369;SDS011;10344;47.592;9.600;2022-10-22T19:12:46;1.83;;;1.40;;
20369;SDS011;10344;47.592;9.600;2022-10-22T19:15:11;2.03;;;1.30;;
20369;SDS011;10344;47.592;9.600;2022-10-22T19:17:37;1.87;;;1.67;;
20369;SDS011;10344;47.592;9.600;2022-10-22T19:20:03;1.67;;;1.23;;
20369;SDS011;10344;47.592;9.600;2022-10-22T19:22:29;1.33;;;1.23;;
20369;SDS011;10344;47.592;9.600;2022-10-22T19:24:55;1.30;;;1.20;;
20369;SDS011;10344;47.592;9.600;2022-10-22T19:27:22;1.80;;;1.40;;
20369;SDS011;10344;47.592;9.600;2022-10-22T19:29:49;1.83;;;1.60;;
20369;SDS011;10344;47.592;9.600;2022-10-22T19:32:15;1.70;;;1.20;;
20369;SDS011;10344;47.592;9.600;2022-10-22T19:34:43;1.67;;;1.30;;
20369;SDS011;10344;47.592;9.600;2022-10-22T19:37:10;1.58;;;1.30;;
20369;SDS011;10344;47.592;9.600;2022-10-22T19:39:36;2.10;;;1.30;;
20369;SDS011;10344;47.592;9.600;2022-10-22T19:42:02;1.80;;;1.40;;
20369;SDS011;10344;47.592;9.600;2022-10-22T19:44:29;3.47;;;1.40;;
20369;SDS011;10344;47.592;9.600;2022-10-22T19:46:55;1.10;;;1.00;;
20369;SDS011;10344;47.592;9.600;2022-10-22T19:49:28;2.47;;;1.30;;
20369;SDS011;10344;47.592;9.600;2022-10-22T19:51:53;2.13;;;1.40;;
20369;SDS011;10344;47.592;9.600;2022-10-22T19:54:20;2.60;;;1.40;;
20369;SDS011;10344;47.592;9.600;2022-10-22T19:56:46;1.50;;;1.20;;
20369;SDS011;10344;47.592;9.600;2022-10-22T19:59:16;1.90;;;1.20;;
20369;SDS011;10344;47.592;9.600;2022-10-22T20:01:44;2.90;;;1.35;;
20369;SDS011;10344;47.592;9.600;2022-10-22T20:04:12;1.40;;;1.30;;
20369;SDS011;10344;47.592;9.600;2022-10-22T20:06:40;1.73;;;1.00;;
20369;SDS011;10344;47.592;9.600;2022-10-22T20:09:06;1.70;;;1.42;;
20369;SDS011;10344;47.592;9.600;2022-10-22T20:11:32;1.50;;;1.10;;
20369;SDS011;10344;47.592;9.600;2022-10-22T20:13:58;2.10;;;1.07;;
20369;SDS011;10344;47.592;9.600;2022-10-22T20:16:24;1.17;;;1.07;;
20369;SDS011;10344;47.592;9.600;2022-10-22T20:18:52;1.58;;;1.00;;
20369;SDS011;10344;47.592;9.600;2022-10-22T20:21:18;2.60;;;1.20;;
20369;SDS011;10344;47.592;9.600;2022-10-22T20:23:49;9.55;;;1.52;;
20369;SDS011;10344;47.592;9.600;2022-10-22T20:26:18;1.63;;;1.03;;
20369;SDS011;10344;47.592;9.600;2022-10-22T20:28:45;1.63;;;1.20;;
20369;SDS011;10344;47.592;9.600;2022-10-22T20:31:11;1.30;;;1.20;;
20369;SDS011;10344;47.592;9.600;2022-10-22T20:33:39;1.65;;;1.17;;
20369;SDS011;10344;47.592;9.600;2022-10-22T20:36:08;1.50;;;1.30;;
20369;SDS011;10344;47.592;9.600;2022-10-22T20:38:39;1.50;;;1.33;;
20369;SDS011;10344;47.592;9.600;2022-10-22T20:41:09;2.38;;;1.27;;
20369;SDS011;10344;47.592;9.600;2022-10-22T20:43:36;1.23;;;1.15;;
20369;SDS011;10344;47.592;9.600;2022-10-22T20:46:02;1.30;;;1.10;;
20369;SDS011;10344;47.592;9.600;2022-10-22T20:48:28;1.40;;;1.30;;
20369;SDS011;10344;47.592;9.600;2022-10-22T20:50:55;1.90;;;1.30;;
20369;SDS011;10344;47.592;9.600;2022-10-22T20:53:22;1.95;;;1.15;;
20369;SDS011;10344;47.592;9.600;2022-10-22T20:55:52;1.50;;;1.33;;
20369;SDS011;10344;47.592;9.600;2022-10-22T20:58:21;2.90;;;1.40;;
20369;SDS011;10344;47.592;9.600;2022-10-22T21:00:49;2.00;;;1.40;;
20369;SDS011;10344;47.592;9.600;2022-10-22T21:03:15;2.00;;;1.25;;
20369;SDS011;10344;47.592;9.600;2022-10-22T21:05:41;1.53;;;1.33;;
20369;SDS011;10344;47.592;9.600;2022-10-22T21:08:06;2.53;;;1.43;;
20369;SDS011;10344;47.592;9.600;2022-10-22T21:10:34;1.45;;;1.30;;
20369;SDS011;10344;47.592;9.600;2022-10-22T21:12:59;2.65;;;1.40;;
20369;SDS011;10344;47.592;9.600;2022-10-22T21:15:25;1.98;;;1.50;;
20369;SDS011;10344;47.592;9.600;2022-10-22T21:17:52;2.60;;;1.70;;
20369;SDS011;10344;47.592;9.600;2022-10-22T21:20:21;1.67;;;1.38;;
20369;SDS011;10344;47.592;9.600;2022-10-22T21:22:47;1.40;;;1.30;;
20369;SDS011;10344;47.592;9.600;2022-10-22T21:25:13;1.80;;;1.23;;
20369;SDS011;10344;47.592;9.600;2022-10-22T21:27:38;3.00;;;1.20;;
20369;SDS011;10344;47.592;9.600;2022-10-22T21:30:04;1.30;;;1.20;;
20369;SDS011;10344;47.592;9.600;2022-10-22T21:32:32;2.07;;;1.20;;
20369;SDS011;10344;47.592;9.600;2022-10-22T21:35:02;1.80;;;1.40;;
20369;SDS011;10344;47.592;9.600;2022-10-22T21:37:28;2.07;;;1.47;;
20369;SDS011;10344;47.592;9.600;2022-10-22T21:39:59;1.45;;;1.10;;
20369;SDS011;10344;47.592;9.600;2022-10-22T21:42:26;3.28;;;1.25;;
20369;SDS011;10344;47.592;9.600;2022-10-22T21:44:53;1.30;;;1.10;;
20369;SDS011;10344;47.592;9.600;2022-10-22T21:47:19;1.80;;;1.40;;
20369;SDS011;10344;47.592;9.600;2022-10-22T21:49:47;1.88;;;1.40;;
20369;SDS011;10344;47.592;9.600;2022-10-22T21:52:15;1.48;;;1.20;;
20369;SDS011;10344;47.592;9.600;2022-10-22T21:54:40;1.48;;;1.20;;
20369;SDS011;10344;47.592;9.600;2022-10-22T21:57:06;1.20;;;1.10;;
20369;SDS011;10344;47.592;9.600;2022-10-22T21:59:34;1.33;;;1.23;;
20369;SDS011;10344;47.592;9.600;2022-10-22T22:02:00;1.50;;;1.10;;
20369;SDS011;10344;47.592;9.600;2022-10-22T22:04:26;2.83;;;1.00;;
20369;SDS011;10344;47.592;9.600;2022-10-22T22:06:52;1.20;;;1.10;;
20369;SDS011;10344;47.592;9.600;2022-10-22T22:09:22;1.17;;;0.95;;
20369;SDS011;10344;47.592;9.600;2022-10-22T22:11:48;1.40;;;1.10;;
20369;SDS011;10344;47.592;9.600;2022-10-22T22:14:13;2.20;;;0.90;;
20369;SDS011;10344;47.592;9.600;2022-10-22T22:16:39;1.47;;;0.93;;
20369;SDS011;10344;47.592;9.600;2022-10-22T22:19:08;3.15;;;1.17;;
20369;SDS011;10344;47.592;9.600;2022-10-22T22:21:37;1.45;;;1.20;;
20369;SDS011;10344;47.592;9.600;2022-10-22T22:24:04;1.50;;;1.00;;
20369;SDS011;10344;47.592;9.600;2022-10-22T22:26:30;1.10;;;0.90;;
20369;SDS011;10344;47.592;9.600;2022-10-22T22:28:56;1.53;;;0.90;;
20369;SDS011;10344;47.592;9.600;2022-10-22T22:31:24;2.00;;;1.20;;
20369;SDS011;10344;47.592;9.600;2022-10-22T22:34:02;1.30;;;0.80;;
20369;SDS011;10344;47.592;9.600;2022-10-22T22:36:37;1.20;;;0.75;;
20369;SDS011;10344;47.592;9.600;2022-10-22T22:39:06;2.00;;;1.00;;
20369;SDS011;10344;47.592;9.600;2022-10-22T22:41:37;1.47;;;0.90;;
20369;SDS011;10344;47.592;9.600;2022-10-22T22:44:02;1.27;;;0.90;;
20369;SDS011;10344;47.592;9.600;2022-10-22T22:46:28;2.67;;;0.93;;
20369;SDS011;10344;47.592;9.600;2022-10-22T22:48:54;0.80;;;0.80;;
20369;SDS011;10344;47.592;9.600;2022-10-22T22:51:20;2.20;;;1.10;;
20369;SDS011;10344;47.592;9.600;2022-10-22T22:53:45;0.98;;;0.90;;
20369;SDS011;10344;47.592;9.600;2022-10-22T22:56:12;2.17;;;0.82;;
20369;SDS011;10344;47.592;9.600;2022-10-22T22:58:40;1.50;;;1.00;;
20369;SDS011;10344;47.592;9.600;2022-10-22T23:01:28;1.20;;;0.88;;
20369;SDS011;10344;47.592;9.600;2022-10-22T23:03:59;1.63;;;1.05;;
20369;SDS011;10344;47.592;9.600;2022-10-22T23:06:25;0.80;;;0.80;;
20369;SDS011;10344;47.592;9.600;2022-10-22T23:08:55;0.70;;;0.70;;
20369;SDS011;10344;47.592;9.600;2022-10-22T23:11:22;1.00;;;0.77;;
20369;SDS011;10344;47.592;9.600;2022-10-22T23:13:53;1.27;;;0.80;;
20369;SDS011;10344;47.592;9.600;2022-10-22T23:16:22;1.27;;;1.02;;
20369;SDS011;10344;47.592;9.600;2022-10-22T23:18:52;1.38;;;0.85;;
20369;SDS011;10344;47.592;9.600;2022-10-22T23:21:20;0.95;;;0.90;;
20369;SDS011;10344;47.592;9.600;2022-10-22T23:23:52;1.30;;;1.00;;
20369;SDS011;10344;47.592;9.600;2022-10-22T23:31:53;1.70;;;0.75;;
20369;SDS011;10344;47.592;9.600;2022-10-22T23:34:23;1.83;;;0.70;;
20369;SDS011;10344;47.592;9.600;2022-10-22T23:36:50;1.20;;;1.00;;
20369;SDS011;10344;47.592;9.600;2022-10-22T23:42:56;0.98;;;0.90;;
20369;SDS011;10344;47.592;9.600;2022-10-22T23:48:10;0.73;;;0.70;;
20369;SDS011;10344;47.592;9.600;2022-10-22T23:50:52;1.38;;;0.70;;
20369;SDS011;10344;47.592;9.600;2022-10-22T23:53:21;0.70;;;0.70;;
20369;SDS011;10344;47.592;9.600;2022-10-22T23:55:49;1.80;;;0.77;;
20369;SDS011;10344;47.592;9.600;2022-10-22T23:58:28;0.70;;;0.70;;
